Canefield Airport

Cloudy with light  showers
30oC (86oF)

Cloudy with light showers


Winds: South westerly @ 01kt / 02km/h

Humidity: 78%

Barometric Pressure: 1011 mb

Accumulated Rainfall for August: 268.0 mm

Updated: 18:00 local time (22:00 UTC)

Douglas-Charles Airport

Cloudy with adjacent showers
29oC (84oF)

Cloudy with adjacent showers


Winds: South easterly @ 02kts / 04km/h

Humidity: 78%

Barometric Pressure: 1013 mb

Accumulated Rainfall for August: 364.1 mm

Updated: 18:00 local time (22:00 UTC)

Satellite Imagery

Satellite Imagery
Click image for larger view. (Source: National Hurricane Center).

Aviation Routine Report (METAR)

Douglas-Charles: METAR TDPD 222200Z 13002KT 9999 BKN017 FEW///CB 29/25 Q1013=
Canefield: METAR TDCF 222200Z 22001KT 9999 -SHRA BKN014TCU FEW///CB 30/25 Q1011=